TimeCDT,TemperatureF,Dew PointF,Humidity,Sea Level PressureIn,VisibilityMPH,Wind Direction,Wind SpeedMPH,Gust SpeedMPH,PrecipitationIn,Events,Conditions,WindDirDegrees,DateUTC
12:15 AM,65.3,53.6,66,29.77,10.0,SSE,16.1,21.9,N/A,,Clear,150,2013-10-11 05:15:00
12:35 AM,64.9,53.6,67,29.77,10.0,SSE,16.1,24.2,N/A,,Clear,150,2013-10-11 05:35:00
12:55 AM,64.8,53.6,67,29.77,10.0,SSE,18.4,-,N/A,,Clear,150,2013-10-11 05:55:00
1:15 AM,63.7,53.6,70,29.76,10.0,SSE,16.1,-,N/A,,Clear,150,2013-10-11 06:15:00
1:55 AM,63.5,53.8,71,29.79,10.0,SSE,12.7,-,N/A,,Clear,160,2013-10-11 06:55:00
2:15 AM,63.1,53.6,71,29.78,10.0,SSE,13.8,-,N/A,,Clear,150,2013-10-11 07:15:00
2:35 AM,62.8,53.8,72,29.76,10.0,SE,13.8,19.6,N/A,,Clear,130,2013-10-11 07:35:00
2:55 AM,61.9,53.6,74,29.77,10.0,SE,11.5,-,N/A,,Scattered Clouds,140,2013-10-11 07:55:00
3:15 AM,61.2,53.6,76,29.76,10.0,SE,11.5,-,N/A,,Scattered Clouds,130,2013-10-11 08:15:00
3:35 AM,61.0,53.8,77,29.74,10.0,SE,12.7,-,N/A,,Scattered Clouds,130,2013-10-11 08:35:00
3:55 AM,61.0,53.8,77,29.73,10.0,SE,12.7,18.4,N/A,,Clear,140,2013-10-11 08:55:00
4:15 AM,60.8,53.8,78,29.72,10.0,SE,13.8,-,N/A,,Clear,140,2013-10-11 09:15:00
4:35 AM,60.4,53.8,79,29.71,10.0,SE,13.8,-,N/A,,Clear,130,2013-10-11 09:35:00
4:55 AM,61.0,54.1,78,29.70,10.0,SE,11.5,19.6,N/A,,Clear,140,2013-10-11 09:55:00
5:15 AM,62.1,54.5,76,29.70,10.0,SE,17.3,-,N/A,,Scattered Clouds,140,2013-10-11 10:15:00
5:35 AM,62.6,54.5,75,29.68,10.0,SE,15.0,20.7,N/A,,Clear,140,2013-10-11 10:35:00
5:55 AM,62.2,54.5,76,29.67,10.0,SE,19.6,27.6,N/A,,Clear,140,2013-10-11 10:55:00
6:15 AM,62.2,54.5,76,29.66,10.0,SE,20.7,-,N/A,,Clear,140,2013-10-11 11:15:00
6:35 AM,62.1,54.9,77,29.65,10.0,SE,19.6,28.8,N/A,Rain,Light Rain,140,2013-10-11 11:35:00
6:55 AM,61.7,54.7,78,29.65,10.0,SSE,19.6,-,N/A,,Scattered Clouds,150,2013-10-11 11:55:00
7:15 AM,61.7,54.7,78,29.66,10.0,SSE,20.7,26.5,N/A,,Clear,150,2013-10-11 12:15:00
7:35 AM,61.5,54.5,78,29.65,10.0,SSE,19.6,24.2,N/A,,Clear,150,2013-10-11 12:35:00
7:55 AM,61.3,54.9,79,29.65,10.0,SSE,18.4,23.0,N/A,,Clear,150,2013-10-11 12:55:00
8:15 AM,61.7,55.0,79,29.66,10.0,SSE,13.8,21.9,N/A,,Clear,160,2013-10-11 13:15:00
8:35 AM,62.2,55.4,78,29.66,10.0,SSE,16.1,24.2,N/A,,Mostly Cloudy,160,2013-10-11 13:35:00
8:55 AM,62.8,55.6,77,29.66,10.0,SSE,15.0,20.7,N/A,,Overcast,150,2013-10-11 13:55:00
9:15 AM,64.2,56.3,75,29.65,10.0,SSE,16.1,-,N/A,,Overcast,150,2013-10-11 14:15:00
9:35 AM,65.5,56.8,74,29.65,10.0,South,23.0,28.8,N/A,,Overcast,170,2013-10-11 14:35:00
9:55 AM,65.3,56.8,74,29.66,10.0,South,20.7,25.3,N/A,,Overcast,170,2013-10-11 14:55:00
10:15 AM,65.7,57.2,74,29.66,10.0,South,21.9,28.8,N/A,,Overcast,170,2013-10-11 15:15:00
10:35 AM,66.4,57.4,73,29.66,10.0,South,17.3,27.6,N/A,,Overcast,170,2013-10-11 15:35:00
10:55 AM,67.1,57.6,71,29.66,10.0,South,21.9,26.5,N/A,,Overcast,170,2013-10-11 15:55:00
11:15 AM,68.7,58.1,69,29.65,10.0,South,17.3,27.6,N/A,,Overcast,180,2013-10-11 16:15:00
11:35 AM,70.7,57.6,63,29.65,10.0,South,19.6,27.6,N/A,,Overcast,180,2013-10-11 16:35:00
11:55 AM,72.3,56.8,58,29.64,10.0,South,17.3,27.6,N/A,,Scattered Clouds,180,2013-10-11 16:55:00
12:15 PM,73.2,56.3,55,29.64,10.0,South,25.3,31.1,N/A,,Scattered Clouds,170,2013-10-11 17:15:00
12:35 PM,75.2,54.5,48,29.63,10.0,South,23.0,31.1,N/A,,Clear,180,2013-10-11 17:35:00
12:55 PM,75.7,52.2,44,29.63,10.0,South,26.5,29.9,N/A,,Clear,180,2013-10-11 17:55:00
1:15 PM,77.4,48.6,36,29.63,10.0,South,18.4,32.2,N/A,,Scattered Clouds,190,2013-10-11 18:15:00
1:35 PM,77.9,43.7,30,29.62,10.0,SSW,25.3,31.1,N/A,,Clear,210,2013-10-11 18:35:00
1:55 PM,78.4,43.2,28,29.62,10.0,South,20.7,31.1,N/A,,Clear,190,2013-10-11 18:55:00
2:15 PM,78.8,41.4,26,29.62,10.0,SSW,24.2,36.8,N/A,,Clear,210,2013-10-11 19:15:00
2:35 PM,79.2,41.5,26,29.62,10.0,SSW,23.0,33.4,N/A,,Clear,210,2013-10-11 19:35:00
2:55 PM,79.2,40.3,25,29.63,10.0,SSW,24.2,31.1,N/A,,Clear,200,2013-10-11 19:55:00
3:15 PM,78.8,39.0,24,29.63,10.0,SSW,24.2,33.4,N/A,,Clear,210,2013-10-11 20:15:00
3:35 PM,79.2,38.1,23,29.64,10.0,SW,18.4,28.8,N/A,,Clear,220,2013-10-11 20:35:00
3:55 PM,78.8,36.9,22,29.64,10.0,SSW,20.7,31.1,N/A,,Clear,200,2013-10-11 20:55:00
4:15 PM,79.0,37.6,23,29.65,10.0,SW,18.4,29.9,N/A,,Clear,220,2013-10-11 21:15:00
4:35 PM,78.8,38.5,24,29.65,10.0,SW,23.0,31.1,N/A,,Clear,220,2013-10-11 21:35:00
4:55 PM,78.1,39.7,25,29.67,10.0,SW,23.0,27.6,N/A,,Clear,230,2013-10-11 21:55:00
5:15 PM,77.4,41.4,28,29.68,10.0,WSW,18.4,24.2,N/A,,Clear,240,2013-10-11 22:15:00
5:35 PM,76.3,42.6,30,29.69,10.0,WSW,18.4,27.6,N/A,,Clear,240,2013-10-11 22:35:00
5:55 PM,75.2,43.5,32,29.70,10.0,WSW,19.6,27.6,N/A,,Clear,250,2013-10-11 22:55:00
6:15 PM,73.6,43.3,34,29.72,10.0,West,19.6,24.2,N/A,,Clear,270,2013-10-11 23:15:00
6:35 PM,69.8,44.6,40,29.73,10.0,West,18.4,25.3,N/A,,Clear,280,2013-10-11 23:35:00
6:55 PM,68.0,44.6,43,29.75,10.0,West,16.1,23.0,N/A,,Clear,270,2013-10-11 23:55:00
7:15 PM,66.9,44.2,44,29.77,10.0,West,16.1,19.6,N/A,,Clear,270,2013-10-12 00:15:00
7:35 PM,65.3,44.6,47,29.78,10.0,West,11.5,17.3,N/A,,Clear,280,2013-10-12 00:35:00
7:55 PM,62.6,44.6,52,29.81,10.0,WNW,20.7,33.4,N/A,,Clear,300,2013-10-12 00:55:00
8:15 PM,61.0,44.1,54,29.82,10.0,WNW,19.6,29.9,N/A,,Clear,290,2013-10-12 01:15:00
8:35 PM,59.9,43.3,54,29.83,10.0,WNW,16.1,27.6,N/A,,Clear,290,2013-10-12 01:35:00
8:55 PM,58.8,42.8,55,29.84,10.0,WNW,17.3,26.5,N/A,,Clear,300,2013-10-12 01:55:00
9:15 PM,57.6,42.4,57,29.85,10.0,NW,12.7,26.5,N/A,,Clear,310,2013-10-12 02:15:00
9:35 PM,56.7,42.1,58,29.85,10.0,NW,17.3,21.9,N/A,,Clear,310,2013-10-12 02:35:00
9:55 PM,56.1,42.1,59,29.86,10.0,WNW,15.0,20.7,N/A,,Clear,300,2013-10-12 02:55:00
10:15 PM,55.9,41.9,59,29.87,10.0,WNW,16.1,19.6,N/A,,Clear,300,2013-10-12 03:15:00
10:35 PM,55.6,42.4,61,29.88,10.0,WNW,17.3,23.0,N/A,,Clear,290,2013-10-12 03:35:00
10:55 PM,55.0,42.3,62,29.89,10.0,WNW,16.1,20.7,N/A,,Clear,300,2013-10-12 03:55:00
11:15 PM,55.4,42.1,61,29.90,10.0,WNW,17.3,21.9,N/A,,Clear,290,2013-10-12 04:15:00
11:35 PM,54.9,41.7,61,29.90,10.0,WNW,16.1,-,N/A,,Clear,300,2013-10-12 04:35:00
11:55 PM,53.8,42.1,65,29.91,10.0,WNW,9.2,-,N/A,,Clear,290,2013-10-12 04:55:00